EDBL weather

Laucha Airfield
Laucha an der Unstrut, Saxony-Anhalt, Germany

Public forecast

Using degrees Celsius for public forecast. Weather courtesy of forecast.io.

Closest aviation weather report (METAR) to Laucha Airfield

Closest report is Leipzig/Halle Airport, 23.0 nm (42.6 km) ENE. Retrieved 2020/08/07 11:20 UTC (8 minutes ago):

EDDP 071120Z VRB05KT CAVOK 30/14 Q1021 NOSIG

Closest aviation forecast (TAF) to Laucha Airfield

Closest forecast is Leipzig/Halle Airport, 23.0 nm (42.6 km) ENE. Retrieved 2020/08/07 06:27 UTC (5 hours ago):

TAF EDDP 070500Z 0706/0806 10006KT CAVOK